Selfridge Angb Airport
KMTC : rendu visible

Aérodrome :











RETROUVEZ-NOUS SUR...

 
LOGIN :

S'inscrire | Disclaimer

   EN    FR    IT 

 









Légende :    VFR   VFR Marginal   IFR   IFR Intensif   IFR Très Intensif
Visi : 
Plafond : 
>= 8 km
>= 3000ft
5 à 8 km
1000 à 3000 ft
1500m à 5 km
500 à 1000 ft
800 à 1500m
200 à 500 ft
< 800m
< 200 ft
Symboles :   Orages  Brouillard  Fortes neiges  Fortes précipitations  Vent > 20 kt






- Altitude de l'aérodrome : 580 ft


KMTC - Selfridge Angb

DERNIER METAR :
  • 100756Z AUTO 27013G23KT 10SM OVC028 04/00 A2964 RMK AO2 PK WND 27026/00 CIG 027 RWY01 SLP045 T00380003

METARs EXPIRÉS :
  • 100711Z AUTO 27016G26KT 10SM BKN021 OVC026 04/02 A2961 RMK AO2 BKN V OVC SLP034
  • 100656Z AUTO 28015G21KT 10SM OVC018 04/03 A2961 RMK AO2 PK WND 27032/0558 RAE00 SLP034 P0000 T00440027
  • 100630Z AUTO 27018G28KT 10SM BKN018 BKN027 OVC033 05/04 A2959 RMK AO2 RAE00 CIG 018V026 BKN018 V SCT PRESRR SLP028
  • 100600Z AUTO 25016G26KT 10SM BKN022 OVC031 07/03 A2955 RMK AO2 RAE00 CIG 021 RWY01 SLP014
  • 100556Z AUTO 25017G32KT 10SM -RA BKN022 BKN030 OVC055 07/04 A2955 RMK AO2 PK WND 27035/50 RAB50 CIG 021 RWY01 SLP014 P0000 60001 T00690042 10105 20069 52036

TAF AMD TAF KMTC
Valide du 10 à 03h jusqu'au 11 à 07h UTC


100336Z 1003/1107 22010G15KT 9999 SCT039 BKN050 QNH2943INS
BECMG 1010/1011 29012G18KT 9999 BKN030 620302 QNH2947INS
BECMG 1013/1014 29015G25KT 9999 BKN030 620302 QNH2982INS
BECMG 1016/1017 29012G18KT 9999 BKN040 620401 QNH2993INS
BECMG 1100/1101 27009KT 9999 SCT040 QNH3011INS TX10/1003Z TNM04/1101Z LAST NO AMDS AFT 1004 NEXT 1009



MET'MAP, la Météo Aéronautique d'un coup d'oeil ! - Copyright ORBIFLY Décembre 2007 - Disclaimer

ORBIFLY MET'MAP TEAM :

Programmation & Développement : Alexandra Zaïnal
Sur une idée originale de : Baudouin d'Aumeries
Assistance à la programmation : Marc-Olivier Méhu
Soutien technique & logistique : Manuel Goepfert

Contact : metmap@orbifly.com




SOURCES & CREDITS :

   NOAA       Earth
Advisory